sensor_id;sensor_type;location;lat;lon;timestamp;temperature;humidity
21849;DHT22;11089;49.852;19.700;2023-06-22T00:00:13;20.40;26.80
21849;DHT22;11089;49.852;19.700;2023-06-22T00:03:14;20.40;1.00
21849;DHT22;11089;49.852;19.700;2023-06-22T00:06:15;20.40;99.90
21849;DHT22;11089;49.852;19.700;2023-06-22T00:09:16;20.30;1.00
21849;DHT22;11089;49.852;19.700;2023-06-22T00:12:17;20.10;1.00
21849;DHT22;11089;49.852;19.700;2023-06-22T00:15:18;20.10;61.20
21849;DHT22;11089;49.852;19.700;2023-06-22T00:18:19;20.00;99.90
21849;DHT22;11089;49.852;19.700;2023-06-22T00:21:20;20.10;1.00
21849;DHT22;11089;49.852;19.700;2023-06-22T00:24:21;20.10;99.90
21849;DHT22;11089;49.852;19.700;2023-06-22T00:27:22;20.00;32.80
21849;DHT22;11089;49.852;19.700;2023-06-22T00:30:23;19.90;1.00
21849;DHT22;11089;49.852;19.700;2023-06-22T00:33:24;20.00;1.00
21849;DHT22;11089;49.852;19.700;2023-06-22T00:36:25;19.90;1.00
21849;DHT22;11089;49.852;19.700;2023-06-22T00:39:26;19.90;99.90
21849;DHT22;11089;49.852;19.700;2023-06-22T00:42:27;19.90;36.90
21849;DHT22;11089;49.852;19.700;2023-06-22T00:45:28;19.80;1.00
21849;DHT22;11089;49.852;19.700;2023-06-22T00:48:29;19.70;1.00
21849;DHT22;11089;49.852;19.700;2023-06-22T00:51:30;19.70;99.90
21849;DHT22;11089;49.852;19.700;2023-06-22T00:54:31;19.70;99.90
21849;DHT22;11089;49.852;19.700;2023-06-22T00:57:32;19.50;1.00
21849;DHT22;11089;49.852;19.700;2023-06-22T01:00:33;19.60;1.00
21849;DHT22;11089;49.852;19.700;2023-06-22T01:03:34;19.60;1.00
21849;DHT22;11089;49.852;19.700;2023-06-22T01:06:40;19.50;99.90
21849;DHT22;11089;49.852;19.700;2023-06-22T01:09:59;19.50;1.00
21849;DHT22;11089;49.852;19.700;2023-06-22T01:13:29;19.60;1.00
21849;DHT22;11089;49.852;19.700;2023-06-22T01:16:34;19.60;99.90
21849;DHT22;11089;49.852;19.700;2023-06-22T01:19:46;19.70;99.90
21849;DHT22;11089;49.852;19.700;2023-06-22T01:23:15;19.80;1.00
21849;DHT22;11089;49.852;19.700;2023-06-22T01:26:50;19.80;99.90
21849;DHT22;11089;49.852;19.700;2023-06-22T01:29:55;19.80;1.00
21849;DHT22;11089;49.852;19.700;2023-06-22T01:33:03;19.90;99.90
21849;DHT22;11089;49.852;19.700;2023-06-22T01:36:07;19.80;1.00
21849;DHT22;11089;49.852;19.700;2023-06-22T01:39:08;19.80;1.00
21849;DHT22;11089;49.852;19.700;2023-06-22T01:42:10;19.60;1.00
21849;DHT22;11089;49.852;19.700;2023-06-22T01:45:12;19.70;48.50
21849;DHT22;11089;49.852;19.700;2023-06-22T01:48:13;19.50;1.00
21849;DHT22;11089;49.852;19.700;2023-06-22T01:51:14;19.40;99.90
21849;DHT22;11089;49.852;19.700;2023-06-22T01:54:15;19.40;99.90
21849;DHT22;11089;49.852;19.700;2023-06-22T01:57:16;19.50;1.00
21849;DHT22;11089;49.852;19.700;2023-06-22T02:00:21;19.50;99.90
21849;DHT22;11089;49.852;19.700;2023-06-22T02:03:40;19.40;1.00
21849;DHT22;11089;49.852;19.700;2023-06-22T02:06:44;19.40;51.70
21849;DHT22;11089;49.852;19.700;2023-06-22T02:09:47;19.40;1.00
21849;DHT22;11089;49.852;19.700;2023-06-22T02:12:50;19.30;99.90
21849;DHT22;11089;49.852;19.700;2023-06-22T02:15:52;19.30;1.00
21849;DHT22;11089;49.852;19.700;2023-06-22T02:18:53;19.30;1.00
21849;DHT22;11089;49.852;19.700;2023-06-22T02:21:54;19.30;1.00
21849;DHT22;11089;49.852;19.700;2023-06-22T02:24:54;19.20;1.00
21849;DHT22;11089;49.852;19.700;2023-06-22T02:27:56;19.30;99.90
21849;DHT22;11089;49.852;19.700;2023-06-22T02:30:57;19.20;1.00
21849;DHT22;11089;49.852;19.700;2023-06-22T02:33:58;19.30;99.90
21849;DHT22;11089;49.852;19.700;2023-06-22T02:36:59;19.30;99.90
21849;DHT22;11089;49.852;19.700;2023-06-22T02:40:01;19.20;1.00
21849;DHT22;11089;49.852;19.700;2023-06-22T02:43:04;19.10;9.40
21849;DHT22;11089;49.852;19.700;2023-06-22T02:46:05;19.00;1.00
21849;DHT22;11089;49.852;19.700;2023-06-22T02:49:06;19.20;1.00
21849;DHT22;11089;49.852;19.700;2023-06-22T02:52:07;19.20;99.90
21849;DHT22;11089;49.852;19.700;2023-06-22T02:55:08;19.30;1.00
21849;DHT22;11089;49.852;19.700;2023-06-22T02:58:09;19.30;1.00
21849;DHT22;11089;49.852;19.700;2023-06-22T03:01:10;19.20;99.90
21849;DHT22;11089;49.852;19.700;2023-06-22T03:04:14;19.30;99.90
21849;DHT22;11089;49.852;19.700;2023-06-22T03:07:16;19.30;1.00
21849;DHT22;11089;49.852;19.700;2023-06-22T03:10:18;19.30;99.90
21849;DHT22;11089;49.852;19.700;2023-06-22T03:13:19;19.30;6.40
21849;DHT22;11089;49.852;19.700;2023-06-22T03:16:20;19.30;36.00
21849;DHT22;11089;49.852;19.700;2023-06-22T03:19:21;19.30;1.00
21849;DHT22;11089;49.852;19.700;2023-06-22T03:22:22;19.20;1.00
21849;DHT22;11089;49.852;19.700;2023-06-22T03:25:23;19.20;1.00
21849;DHT22;11089;49.852;19.700;2023-06-22T03:28:23;19.20;99.90
21849;DHT22;11089;49.852;19.700;2023-06-22T03:31:24;19.20;1.00
21849;DHT22;11089;49.852;19.700;2023-06-22T03:34:25;19.30;99.90
21849;DHT22;11089;49.852;19.700;2023-06-22T03:37:27;19.20;99.90
21849;DHT22;11089;49.852;19.700;2023-06-22T03:40:27;19.20;1.00
21849;DHT22;11089;49.852;19.700;2023-06-22T03:43:30;19.30;1.00
21849;DHT22;11089;49.852;19.700;2023-06-22T03:46:30;19.20;1.00
21849;DHT22;11089;49.852;19.700;2023-06-22T03:49:31;19.20;1.00
21849;DHT22;11089;49.852;19.700;2023-06-22T03:52:32;19.30;1.00
21849;DHT22;11089;49.852;19.700;2023-06-22T03:55:34;19.30;1.00
21849;DHT22;11089;49.852;19.700;2023-06-22T03:58:35;19.30;1.00
21849;DHT22;11089;49.852;19.700;2023-06-22T04:01:37;19.30;1.00
21849;DHT22;11089;49.852;19.700;2023-06-22T04:04:38;19.30;99.90
21849;DHT22;11089;49.852;19.700;2023-06-22T04:07:39;19.30;99.90
21849;DHT22;11089;49.852;19.700;2023-06-22T04:10:41;19.30;1.00
21849;DHT22;11089;49.852;19.700;2023-06-22T04:13:42;19.40;1.00
21849;DHT22;11089;49.852;19.700;2023-06-22T04:16:43;19.40;1.00
21849;DHT22;11089;49.852;19.700;2023-06-22T04:19:43;19.40;99.90
21849;DHT22;11089;49.852;19.700;2023-06-22T04:22:44;19.50;99.90
21849;DHT22;11089;49.852;19.700;2023-06-22T04:25:46;19.60;1.00
21849;DHT22;11089;49.852;19.700;2023-06-22T04:28:47;19.70;1.00
21849;DHT22;11089;49.852;19.700;2023-06-22T04:31:52;19.80;99.90
21849;DHT22;11089;49.852;19.700;2023-06-22T04:34:53;19.80;1.00
21849;DHT22;11089;49.852;19.700;2023-06-22T04:37:57;19.90;1.00
21849;DHT22;11089;49.852;19.700;2023-06-22T04:40:59;19.90;1.00
21849;DHT22;11089;49.852;19.700;2023-06-22T04:44:02;19.90;3.60
21849;DHT22;11089;49.852;19.700;2023-06-22T04:47:05;20.00;1.00
21849;DHT22;11089;49.852;19.700;2023-06-22T04:50:09;20.10;99.90
21849;DHT22;11089;49.852;19.700;2023-06-22T04:53:10;20.20;1.00
21849;DHT22;11089;49.852;19.700;2023-06-22T04:56:13;20.30;98.00
21849;DHT22;11089;49.852;19.700;2023-06-22T04:59:16;20.30;99.90
21849;DHT22;11089;49.852;19.700;2023-06-22T05:02:19;20.40;99.90
21849;DHT22;11089;49.852;19.700;2023-06-22T05:05:20;20.50;99.90
21849;DHT22;11089;49.852;19.700;2023-06-22T05:08:21;20.60;99.90
21849;DHT22;11089;49.852;19.700;2023-06-22T05:11:22;20.70;99.90
21849;DHT22;11089;49.852;19.700;2023-06-22T05:14:23;20.80;1.00
21849;DHT22;11089;49.852;19.700;2023-06-22T05:17:24;20.80;1.00
21849;DHT22;11089;49.852;19.700;2023-06-22T05:20:25;20.80;1.00
21849;DHT22;11089;49.852;19.700;2023-06-22T05:23:26;20.90;1.00
21849;DHT22;11089;49.852;19.700;2023-06-22T05:26:27;20.90;99.90
21849;DHT22;11089;49.852;19.700;2023-06-22T05:29:28;21.00;99.90
21849;DHT22;11089;49.852;19.700;2023-06-22T05:32:29;21.00;1.00
21849;DHT22;11089;49.852;19.700;2023-06-22T05:35:30;21.10;1.00
21849;DHT22;11089;49.852;19.700;2023-06-22T05:38:32;21.20;1.00
21849;DHT22;11089;49.852;19.700;2023-06-22T05:41:32;21.20;1.00
21849;DHT22;11089;49.852;19.700;2023-06-22T05:44:33;21.30;1.00
21849;DHT22;11089;49.852;19.700;2023-06-22T05:47:34;21.40;99.90
21849;DHT22;11089;49.852;19.700;2023-06-22T05:50:36;21.50;1.00
21849;DHT22;11089;49.852;19.700;2023-06-22T05:53:38;21.50;99.90
21849;DHT22;11089;49.852;19.700;2023-06-22T05:56:39;21.60;1.00
21849;DHT22;11089;49.852;19.700;2023-06-22T05:59:40;21.70;99.90
21849;DHT22;11089;49.852;19.700;2023-06-22T06:02:41;21.80;99.90
21849;DHT22;11089;49.852;19.700;2023-06-22T06:05:44;21.90;1.00
21849;DHT22;11089;49.852;19.700;2023-06-22T06:08:46;22.00;99.90
21849;DHT22;11089;49.852;19.700;2023-06-22T06:11:47;22.10;99.90
21849;DHT22;11089;49.852;19.700;2023-06-22T06:14:48;22.10;1.00
21849;DHT22;11089;49.852;19.700;2023-06-22T06:17:50;22.20;1.00
21849;DHT22;11089;49.852;19.700;2023-06-22T06:20:51;22.30;1.00
21849;DHT22;11089;49.852;19.700;2023-06-22T06:23:52;22.40;1.00
21849;DHT22;11089;49.852;19.700;2023-06-22T06:26:53;22.50;1.00
21849;DHT22;11089;49.852;19.700;2023-06-22T06:29:54;22.60;99.90
21849;DHT22;11089;49.852;19.700;2023-06-22T06:32:55;22.70;99.90
21849;DHT22;11089;49.852;19.700;2023-06-22T06:35:56;22.90;1.00
21849;DHT22;11089;49.852;19.700;2023-06-22T06:38:57;22.90;99.90
21849;DHT22;11089;49.852;19.700;2023-06-22T06:41:59;23.00;1.00
21849;DHT22;11089;49.852;19.700;2023-06-22T06:44:59;23.10;1.00
21849;DHT22;11089;49.852;19.700;2023-06-22T06:48:00;23.20;1.00
21849;DHT22;11089;49.852;19.700;2023-06-22T06:51:01;23.30;1.00
21849;DHT22;11089;49.852;19.700;2023-06-22T06:54:02;23.40;1.00
21849;DHT22;11089;49.852;19.700;2023-06-22T06:57:04;23.50;1.00
21849;DHT22;11089;49.852;19.700;2023-06-22T07:00:06;23.60;1.00
21849;DHT22;11089;49.852;19.700;2023-06-22T07:03:12;23.70;93.40
21849;DHT22;11089;49.852;19.700;2023-06-22T07:06:13;23.80;15.30
21849;DHT22;11089;49.852;19.700;2023-06-22T07:09:14;23.90;99.90
21849;DHT22;11089;49.852;19.700;2023-06-22T07:12:15;24.00;99.90
21849;DHT22;11089;49.852;19.700;2023-06-22T07:15:16;24.00;1.00
21849;DHT22;11089;49.852;19.700;2023-06-22T07:18:17;24.10;99.90
21849;DHT22;11089;49.852;19.700;2023-06-22T07:21:18;24.20;1.00
21849;DHT22;11089;49.852;19.700;2023-06-22T07:24:20;24.40;1.00
21849;DHT22;11089;49.852;19.700;2023-06-22T07:27:21;24.40;1.00
21849;DHT22;11089;49.852;19.700;2023-06-22T07:30:22;24.40;1.00
21849;DHT22;11089;49.852;19.700;2023-06-22T07:33:23;24.40;1.00
21849;DHT22;11089;49.852;19.700;2023-06-22T07:36:24;24.50;1.00
21849;DHT22;11089;49.852;19.700;2023-06-22T07:39:25;24.50;1.00
21849;DHT22;11089;49.852;19.700;2023-06-22T07:42:27;24.60;99.90
21849;DHT22;11089;49.852;19.700;2023-06-22T07:45:33;24.70;1.00
21849;DHT22;11089;49.852;19.700;2023-06-22T07:48:37;24.90;1.00
21849;DHT22;11089;49.852;19.700;2023-06-22T07:51:38;25.10;1.00
21849;DHT22;11089;49.852;19.700;2023-06-22T07:54:39;25.20;99.90
21849;DHT22;11089;49.852;19.700;2023-06-22T07:57:40;25.10;1.00
21849;DHT22;11089;49.852;19.700;2023-06-22T08:00:42;25.20;1.00
21849;DHT22;11089;49.852;19.700;2023-06-22T08:03:43;25.50;99.90
21849;DHT22;11089;49.852;19.700;2023-06-22T08:06:44;25.70;99.90
21849;DHT22;11089;49.852;19.700;2023-06-22T08:09:49;25.80;99.90
21849;DHT22;11089;49.852;19.700;2023-06-22T08:12:50;26.00;1.00
21849;DHT22;11089;49.852;19.700;2023-06-22T08:15:52;26.20;1.00
21849;DHT22;11089;49.852;19.700;2023-06-22T08:18:53;26.50;1.00
21849;DHT22;11089;49.852;19.700;2023-06-22T08:21:55;26.70;1.00
21849;DHT22;11089;49.852;19.700;2023-06-22T08:24:56;26.80;1.00
21849;DHT22;11089;49.852;19.700;2023-06-22T08:27:57;26.70;1.00
21849;DHT22;11089;49.852;19.700;2023-06-22T08:30:59;26.70;1.00
21849;DHT22;11089;49.852;19.700;2023-06-22T08:34:02;27.00;1.00
21849;DHT22;11089;49.852;19.700;2023-06-22T08:37:03;27.20;1.00
21849;DHT22;11089;49.852;19.700;2023-06-22T08:40:08;27.40;1.00
21849;DHT22;11089;49.852;19.700;2023-06-22T08:43:10;27.70;99.90
21849;DHT22;11089;49.852;19.700;2023-06-22T08:46:11;27.90;99.90
21849;DHT22;11089;49.852;19.700;2023-06-22T08:49:12;28.00;99.90
21849;DHT22;11089;49.852;19.700;2023-06-22T08:52:13;27.90;99.90
21849;DHT22;11089;49.852;19.700;2023-06-22T08:55:14;28.00;99.90
21849;DHT22;11089;49.852;19.700;2023-06-22T08:58:15;28.30;99.90
21849;DHT22;11089;49.852;19.700;2023-06-22T09:01:16;28.50;99.90
21849;DHT22;11089;49.852;19.700;2023-06-22T09:04:17;28.70;99.90
21849;DHT22;11089;49.852;19.700;2023-06-22T09:07:18;28.80;99.90
21849;DHT22;11089;49.852;19.700;2023-06-22T09:10:23;28.80;99.90
21849;DHT22;11089;49.852;19.700;2023-06-22T09:13:24;29.00;1.00
21849;DHT22;11089;49.852;19.700;2023-06-22T09:16:25;28.90;1.00
21849;DHT22;11089;49.852;19.700;2023-06-22T09:19:26;29.10;1.00
21849;DHT22;11089;49.852;19.700;2023-06-22T09:22:28;29.10;1.00
21849;DHT22;11089;49.852;19.700;2023-06-22T09:25:29;29.20;1.00
21849;DHT22;11089;49.852;19.700;2023-06-22T09:28:30;29.50;1.00
21849;DHT22;11089;49.852;19.700;2023-06-22T09:31:31;29.60;1.00
21849;DHT22;11089;49.852;19.700;2023-06-22T09:34:32;29.50;1.00
21849;DHT22;11089;49.852;19.700;2023-06-22T09:37:33;29.50;1.00
21849;DHT22;11089;49.852;19.700;2023-06-22T09:40:34;29.50;1.00
21849;DHT22;11089;49.852;19.700;2023-06-22T09:43:40;29.30;1.00
21849;DHT22;11089;49.852;19.700;2023-06-22T09:46:41;29.60;1.00
21849;DHT22;11089;49.852;19.700;2023-06-22T09:49:42;29.90;1.00
21849;DHT22;11089;49.852;19.700;2023-06-22T09:52:43;30.00;1.00
21849;DHT22;11089;49.852;19.700;2023-06-22T09:55:47;30.10;1.00
21849;DHT22;11089;49.852;19.700;2023-06-22T09:58:49;30.10;1.00
21849;DHT22;11089;49.852;19.700;2023-06-22T10:01:53;30.10;1.00
21849;DHT22;11089;49.852;19.700;2023-06-22T10:04:54;30.30;1.00
21849;DHT22;11089;49.852;19.700;2023-06-22T10:07:55;30.50;1.00
21849;DHT22;11089;49.852;19.700;2023-06-22T10:10:57;30.60;1.00
21849;DHT22;11089;49.852;19.700;2023-06-22T10:13:58;30.60;1.00
21849;DHT22;11089;49.852;19.700;2023-06-22T10:16:59;30.70;1.00
21849;DHT22;11089;49.852;19.700;2023-06-22T10:20:00;30.80;1.00
21849;DHT22;11089;49.852;19.700;2023-06-22T10:23:06;30.90;1.00
21849;DHT22;11089;49.852;19.700;2023-06-22T10:26:07;30.80;1.00
21849;DHT22;11089;49.852;19.700;2023-06-22T10:29:08;30.80;1.00
21849;DHT22;11089;49.852;19.700;2023-06-22T10:32:09;31.10;1.00
21849;DHT22;11089;49.852;19.700;2023-06-22T10:35:10;31.30;1.00
21849;DHT22;11089;49.852;19.700;2023-06-22T10:38:14;31.20;1.00
21849;DHT22;11089;49.852;19.700;2023-06-22T10:41:15;31.30;1.00
21849;DHT22;11089;49.852;19.700;2023-06-22T10:44:17;31.30;1.00
21849;DHT22;11089;49.852;19.700;2023-06-22T10:47:18;31.40;1.00
21849;DHT22;11089;49.852;19.700;2023-06-22T10:50:19;31.20;1.00
21849;DHT22;11089;49.852;19.700;2023-06-22T10:53:21;31.50;1.00
21849;DHT22;11089;49.852;19.700;2023-06-22T10:56:22;31.80;1.00
21849;DHT22;11089;49.852;19.700;2023-06-22T10:59:23;31.80;1.00
21849;DHT22;11089;49.852;19.700;2023-06-22T11:02:24;32.00;1.00
21849;DHT22;11089;49.852;19.700;2023-06-22T11:05:26;32.20;1.00
21849;DHT22;11089;49.852;19.700;2023-06-22T11:08:26;32.30;1.00
21849;DHT22;11089;49.852;19.700;2023-06-22T11:11:27;32.50;1.00
21849;DHT22;11089;49.852;19.700;2023-06-22T11:14:28;32.60;1.00
21849;DHT22;11089;49.852;19.700;2023-06-22T11:17:29;32.60;1.00
21849;DHT22;11089;49.852;19.700;2023-06-22T11:20:30;32.60;1.00
21849;DHT22;11089;49.852;19.700;2023-06-22T11:23:31;32.80;1.00
21849;DHT22;11089;49.852;19.700;2023-06-22T11:26:33;32.30;99.90
21849;DHT22;11089;49.852;19.700;2023-06-22T11:29:34;32.20;1.00
21849;DHT22;11089;49.852;19.700;2023-06-22T11:32:36;32.20;99.90
21849;DHT22;11089;49.852;19.700;2023-06-22T11:35:37;32.50;1.00
21849;DHT22;11089;49.852;19.700;2023-06-22T11:38:38;32.50;1.00
21849;DHT22;11089;49.852;19.700;2023-06-22T11:41:40;32.70;1.00
21849;DHT22;11089;49.852;19.700;2023-06-22T11:44:42;32.90;1.00
21849;DHT22;11089;49.852;19.700;2023-06-22T11:47:43;32.70;99.90
21849;DHT22;11089;49.852;19.700;2023-06-22T11:50:44;32.90;1.00
21849;DHT22;11089;49.852;19.700;2023-06-22T11:53:45;32.90;99.90
21849;DHT22;11089;49.852;19.700;2023-06-22T11:56:46;32.90;99.90
21849;DHT22;11089;49.852;19.700;2023-06-22T11:59:47;33.20;1.00
21849;DHT22;11089;49.852;19.700;2023-06-22T12:02:48;33.20;1.00
21849;DHT22;11089;49.852;19.700;2023-06-22T12:05:50;32.90;99.90
21849;DHT22;11089;49.852;19.700;2023-06-22T12:08:52;32.80;1.00
21849;DHT22;11089;49.852;19.700;2023-06-22T12:11:52;32.60;99.90
21849;DHT22;11089;49.852;19.700;2023-06-22T12:14:53;32.90;99.90
21849;DHT22;11089;49.852;19.700;2023-06-22T12:17:54;33.20;99.90
21849;DHT22;11089;49.852;19.700;2023-06-22T12:20:55;33.40;99.90
21849;DHT22;11089;49.852;19.700;2023-06-22T12:23:56;33.40;99.90
21849;DHT22;11089;49.852;19.700;2023-06-22T12:26:57;33.30;99.90
21849;DHT22;11089;49.852;19.700;2023-06-22T12:29:58;33.20;99.90
21849;DHT22;11089;49.852;19.700;2023-06-22T12:32:59;33.30;99.90
21849;DHT22;11089;49.852;19.700;2023-06-22T12:36:00;33.30;99.90
21849;DHT22;11089;49.852;19.700;2023-06-22T12:39:01;33.20;99.90
21849;DHT22;11089;49.852;19.700;2023-06-22T12:42:02;33.30;99.90
21849;DHT22;11089;49.852;19.700;2023-06-22T12:45:03;33.50;99.90
21849;DHT22;11089;49.852;19.700;2023-06-22T12:48:05;33.60;99.90
21849;DHT22;11089;49.852;19.700;2023-06-22T12:51:06;33.70;99.90
21849;DHT22;11089;49.852;19.700;2023-06-22T12:54:07;33.70;99.90
21849;DHT22;11089;49.852;19.700;2023-06-22T12:57:08;33.30;99.90
21849;DHT22;11089;49.852;19.700;2023-06-22T13:00:09;33.50;99.90
21849;DHT22;11089;49.852;19.700;2023-06-22T13:03:11;33.50;99.90
21849;DHT22;11089;49.852;19.700;2023-06-22T13:06:11;33.60;99.90
21849;DHT22;11089;49.852;19.700;2023-06-22T13:09:14;33.50;99.90
21849;DHT22;11089;49.852;19.700;2023-06-22T13:12:15;33.00;99.90
21849;DHT22;11089;49.852;19.700;2023-06-22T13:15:16;33.00;99.90
21849;DHT22;11089;49.852;19.700;2023-06-22T13:18:16;33.00;99.90
21849;DHT22;11089;49.852;19.700;2023-06-22T13:21:17;32.80;99.90
21849;DHT22;11089;49.852;19.700;2023-06-22T13:24:18;33.10;99.90
21849;DHT22;11089;49.852;19.700;2023-06-22T13:27:19;33.10;99.90
21849;DHT22;11089;49.852;19.700;2023-06-22T13:30:20;33.10;99.90
21849;DHT22;11089;49.852;19.700;2023-06-22T13:33:21;32.70;99.90
21849;DHT22;11089;49.852;19.700;2023-06-22T13:36:22;32.70;99.90
21849;DHT22;11089;49.852;19.700;2023-06-22T13:39:24;32.90;99.90
21849;DHT22;11089;49.852;19.700;2023-06-22T13:42:24;32.80;99.90
21849;DHT22;11089;49.852;19.700;2023-06-22T13:45:26;33.00;99.90
21849;DHT22;11089;49.852;19.700;2023-06-22T13:48:27;32.80;99.90
21849;DHT22;11089;49.852;19.700;2023-06-22T13:51:29;32.80;99.90
21849;DHT22;11089;49.852;19.700;2023-06-22T13:54:30;32.80;99.90
21849;DHT22;11089;49.852;19.700;2023-06-22T13:57:31;32.60;99.90
21849;DHT22;11089;49.852;19.700;2023-06-22T14:00:32;32.30;99.90
21849;DHT22;11089;49.852;19.700;2023-06-22T14:03:33;32.20;99.90
21849;DHT22;11089;49.852;19.700;2023-06-22T14:06:33;32.40;99.90
21849;DHT22;11089;49.852;19.700;2023-06-22T14:09:34;31.90;99.90
21849;DHT22;11089;49.852;19.700;2023-06-22T14:12:35;31.90;99.90
21849;DHT22;11089;49.852;19.700;2023-06-22T14:15:36;31.80;99.90
21849;DHT22;11089;49.852;19.700;2023-06-22T14:18:37;31.90;99.90
21849;DHT22;11089;49.852;19.700;2023-06-22T14:21:38;32.20;99.90
21849;DHT22;11089;49.852;19.700;2023-06-22T14:24:39;32.30;99.90
21849;DHT22;11089;49.852;19.700;2023-06-22T14:27:40;32.20;99.90
21849;DHT22;11089;49.852;19.700;2023-06-22T14:30:41;31.90;99.90
21849;DHT22;11089;49.852;19.700;2023-06-22T14:33:46;32.00;99.90
21849;DHT22;11089;49.852;19.700;2023-06-22T14:36:47;31.80;99.90
21849;DHT22;11089;49.852;19.700;2023-06-22T14:39:48;31.80;99.90
21849;DHT22;11089;49.852;19.700;2023-06-22T14:42:49;31.80;99.90
21849;DHT22;11089;49.852;19.700;2023-06-22T14:45:50;31.90;99.90
21849;DHT22;11089;49.852;19.700;2023-06-22T14:48:52;31.80;99.90
21849;DHT22;11089;49.852;19.700;2023-06-22T14:51:53;31.90;99.90
21849;DHT22;11089;49.852;19.700;2023-06-22T14:54:54;31.50;99.90
21849;DHT22;11089;49.852;19.700;2023-06-22T14:57:55;30.80;99.90
21849;DHT22;11089;49.852;19.700;2023-06-22T15:00:56;30.90;99.90
21849;DHT22;11089;49.852;19.700;2023-06-22T15:03:57;30.80;99.90
21849;DHT22;11089;49.852;19.700;2023-06-22T15:06:58;30.70;99.90
21849;DHT22;11089;49.852;19.700;2023-06-22T15:09:59;30.90;99.90
21849;DHT22;11089;49.852;19.700;2023-06-22T15:13:00;31.00;99.90
21849;DHT22;11089;49.852;19.700;2023-06-22T15:16:02;30.70;99.90
21849;DHT22;11089;49.852;19.700;2023-06-22T15:19:06;30.80;99.90
21849;DHT22;11089;49.852;19.700;2023-06-22T15:22:07;30.70;99.90
21849;DHT22;11089;49.852;19.700;2023-06-22T15:25:08;30.50;99.90
21849;DHT22;11089;49.852;19.700;2023-06-22T15:28:09;30.60;99.90
21849;DHT22;11089;49.852;19.700;2023-06-22T15:31:10;30.60;99.90
21849;DHT22;11089;49.852;19.700;2023-06-22T15:34:13;30.60;99.90
21849;DHT22;11089;49.852;19.700;2023-06-22T15:37:14;30.60;99.90
21849;DHT22;11089;49.852;19.700;2023-06-22T15:40:17;30.40;99.90
21849;DHT22;11089;49.852;19.700;2023-06-22T15:43:18;30.30;99.90
21849;DHT22;11089;49.852;19.700;2023-06-22T15:46:20;30.30;99.90
21849;DHT22;11089;49.852;19.700;2023-06-22T15:49:22;30.10;99.90
21849;DHT22;11089;49.852;19.700;2023-06-22T15:52:23;30.10;99.90
21849;DHT22;11089;49.852;19.700;2023-06-22T15:55:24;30.20;99.90
21849;DHT22;11089;49.852;19.700;2023-06-22T15:58:25;30.10;99.90
21849;DHT22;11089;49.852;19.700;2023-06-22T16:01:26;30.10;99.90
21849;DHT22;11089;49.852;19.700;2023-06-22T16:04:27;30.00;99.90
21849;DHT22;11089;49.852;19.700;2023-06-22T16:07:28;30.00;99.90
21849;DHT22;11089;49.852;19.700;2023-06-22T16:10:29;30.00;99.90
21849;DHT22;11089;49.852;19.700;2023-06-22T16:13:29;30.00;99.90
21849;DHT22;11089;49.852;19.700;2023-06-22T16:16:31;29.90;99.90
21849;DHT22;11089;49.852;19.700;2023-06-22T16:19:32;29.90;99.90
21849;DHT22;11089;49.852;19.700;2023-06-22T16:22:33;29.90;99.90
21849;DHT22;11089;49.852;19.700;2023-06-22T16:25:34;29.80;99.90
21849;DHT22;11089;49.852;19.700;2023-06-22T16:28:35;29.80;99.90
21849;DHT22;11089;49.852;19.700;2023-06-22T16:31:36;29.60;99.90
21849;DHT22;11089;49.852;19.700;2023-06-22T16:34:37;29.60;99.90
21849;DHT22;11089;49.852;19.700;2023-06-22T16:37:38;29.50;99.90
21849;DHT22;11089;49.852;19.700;2023-06-22T16:40:39;29.50;99.90
21849;DHT22;11089;49.852;19.700;2023-06-22T16:43:40;29.30;1.00
21849;DHT22;11089;49.852;19.700;2023-06-22T16:46:41;29.30;1.00
21849;DHT22;11089;49.852;19.700;2023-06-22T16:49:42;29.20;1.00
21849;DHT22;11089;49.852;19.700;2023-06-22T16:52:43;29.10;1.00
21849;DHT22;11089;49.852;19.700;2023-06-22T16:55:50;29.10;1.00
21849;DHT22;11089;49.852;19.700;2023-06-22T16:58:53;28.80;1.00
21849;DHT22;11089;49.852;19.700;2023-06-22T17:01:56;28.70;1.00
21849;DHT22;11089;49.852;19.700;2023-06-22T17:04:57;28.50;1.00
21849;DHT22;11089;49.852;19.700;2023-06-22T17:08:02;28.40;1.00
21849;DHT22;11089;49.852;19.700;2023-06-22T17:11:04;28.40;1.00
21849;DHT22;11089;49.852;19.700;2023-06-22T17:14:06;28.30;1.00
21849;DHT22;11089;49.852;19.700;2023-06-22T17:17:07;28.20;1.00
21849;DHT22;11089;49.852;19.700;2023-06-22T17:20:09;28.20;1.00
21849;DHT22;11089;49.852;19.700;2023-06-22T17:23:10;28.10;1.00
21849;DHT22;11089;49.852;19.700;2023-06-22T17:26:12;27.90;1.00
21849;DHT22;11089;49.852;19.700;2023-06-22T17:29:15;28.00;1.00
21849;DHT22;11089;49.852;19.700;2023-06-22T17:32:20;27.90;1.00
21849;DHT22;11089;49.852;19.700;2023-06-22T17:35:21;27.80;1.00
21849;DHT22;11089;49.852;19.700;2023-06-22T17:38:22;27.80;1.00
21849;DHT22;11089;49.852;19.700;2023-06-22T17:41:32;27.70;1.00
21849;DHT22;11089;49.852;19.700;2023-06-22T17:44:33;27.70;1.00
21849;DHT22;11089;49.852;19.700;2023-06-22T17:47:35;27.60;1.00
21849;DHT22;11089;49.852;19.700;2023-06-22T17:50:40;27.50;1.00
21849;DHT22;11089;49.852;19.700;2023-06-22T17:53:47;27.50;1.00
21849;DHT22;11089;49.852;19.700;2023-06-22T17:56:50;27.30;1.00
21849;DHT22;11089;49.852;19.700;2023-06-22T17:59:51;27.20;1.00
21849;DHT22;11089;49.852;19.700;2023-06-22T18:02:53;27.20;1.00
21849;DHT22;11089;49.852;19.700;2023-06-22T18:05:54;27.10;1.00
21849;DHT22;11089;49.852;19.700;2023-06-22T18:08:58;27.00;1.00
21849;DHT22;11089;49.852;19.700;2023-06-22T18:12:05;26.90;1.00
21849;DHT22;11089;49.852;19.700;2023-06-22T18:15:07;26.90;1.00
21849;DHT22;11089;49.852;19.700;2023-06-22T18:18:08;26.80;1.00
21849;DHT22;11089;49.852;19.700;2023-06-22T18:21:10;26.70;1.00
21849;DHT22;11089;49.852;19.700;2023-06-22T18:24:14;26.60;1.00
21849;DHT22;11089;49.852;19.700;2023-06-22T18:27:16;26.60;1.00
21849;DHT22;11089;49.852;19.700;2023-06-22T18:30:17;26.40;1.00
21849;DHT22;11089;49.852;19.700;2023-06-22T18:33:20;26.40;1.00
21849;DHT22;11089;49.852;19.700;2023-06-22T18:36:27;26.30;1.00
21849;DHT22;11089;49.852;19.700;2023-06-22T18:39:30;26.30;1.00
21849;DHT22;11089;49.852;19.700;2023-06-22T18:42:32;26.10;1.00
21849;DHT22;11089;49.852;19.700;2023-06-22T18:45:33;26.10;1.00
21849;DHT22;11089;49.852;19.700;2023-06-22T18:48:35;26.00;1.00
21849;DHT22;11089;49.852;19.700;2023-06-22T18:51:56;26.00;1.00
21849;DHT22;11089;49.852;19.700;2023-06-22T18:55:02;26.00;1.00
21849;DHT22;11089;49.852;19.700;2023-06-22T18:58:16;25.90;1.00
21849;DHT22;11089;49.852;19.700;2023-06-22T19:01:22;25.70;1.00